Gibraltar, Michigan
Current Conditions -  °F | °C
As of 10:14 AM on Thursday 18 Dec 2014 (Local Time) from KONZ Reporting Station
Overcast Overcast  
Wind Chill: 22°   Ceiling: 2400
Heat Index: 30°   Visibility: 10mi
Dew Point: 25°   Wind: 9mph
Humidity: 80%   Direction: 250°WSW
Pressure: 30.21"   Gusts: NA
Location:  42.0725°N, 83.2169°W
Report Text: KONZ 181514Z AUTO 25008KT 10SM OVC024 M01/M04 A3021 RMK AO2
Loading
Personal Weather Stations






























Interactive Weather Map New forecast layout! Learn more

10-Day Weather Forecast

Advertisements
Track Severe Weather on mobile